CheckWX is a tool to help pilots better visualize weather data.  It is not intended as a substitute for an official pre-flight weather briefing.

02:51:55 UTC

KSDC METAR
Williamson-Sodus Airport
Williamson/Sodus, New York, USA
Current

17 mins ago

KSDC 160235Z AUTO 25008KT 220V280 10SM OVC033 M01/M06 A3016 RMK AO2
Observed
Dec-16 @ 02:35 UTC
Wind
  • 250° at 8 KTS
Visibility
10 SM
Flight Rules
VFR
Cloud Levels
  • Overcast at 3,300' AGL
Temperature
-1°C / 30°F
Dewpoint
-6°C / 21°F
Humidity
69%
Altimeter
30.16" Hg
Pressure
1021.32 hPa
Previous

57 mins ago

KSDC 160155Z AUTO 27003KT 10SM BKN033 OVC039 M01/M05 A3014 RMK AO2
Observed
Dec-16 @ 01:55 UTC
Wind
  • 270° at 3 KTS
Visibility
10 SM
Flight Rules
VFR
Cloud Levels
  • Broken at 3,300' AGL
  • Overcast at 3,900' AGL
Temperature
-1°C / 30°F
Dewpoint
-5°C / 23°F
Humidity
75%
Altimeter
30.14" Hg
Pressure
1020.62 hPa
Previous

2 hours ago

KSDC 160115Z AUTO 26005KT 5SM -SN SCT015 BKN031 OVC037 M02/M04 A3013 RMK AO2
Observed
Dec-16 @ 01:15 UTC
Wind
  • 260° at 5 KTS
Visibility
5 SM
Flight Rules
MVFR
Conditions
Light Snow
Cloud Levels
  • Scattered at 1,500' AGL
  • Broken at 3,100' AGL
  • Overcast at 3,700' AGL
Temperature
-2°C / 28°F
Dewpoint
-4°C / 25°F
Humidity
86%
Altimeter
30.13" Hg
Pressure
1020.32 hPa